Time;durP1;ratioP1;P1;durP2;ratioP2;P2;SDS_P1;SDS_P2;PMS_P1;PMS_P2;Temp;Humidity;BMP_temperature;BMP_pressure;BME280_temperature;BME280_humidity;BME280_pressure;Samples;Min_cycle;Max_cycle;Signal;HPM_P1;HPM_P2
2023/10/06 00:00:53;;;;;;;14.17;5.03;;;;;;;-145.18;100.00;46636.94;5032750;28;20108;-60
2023/10/06 00:03:22;;;;;;;12.73;4.80;;;;;;;-145.18;100.00;46636.94;5028712;28;20116;-60
2023/10/06 00:05:52;;;;;;;10.37;4.40;;;;;;;-145.18;100.00;46633.06;5032579;28;20030;-60
2023/10/06 00:08:20;;;;;;;12.90;5.03;;;;;;;-145.18;100.00;46635.00;5030192;28;20026;-60
2023/10/06 00:10:54;;;;;;;11.57;5.03;;;;;;;-145.18;100.00;46660.41;5031098;28;20033;-60
2023/10/06 00:13:28;;;;;;;10.73;5.17;;;;;;;-145.18;100.00;46638.91;5028872;28;20083;-60
2023/10/06 00:15:55;;;;;;;10.83;4.87;;;;;;;-145.18;100.00;46636.94;5027678;28;20445;-60
2023/10/06 00:18:23;;;;;;;13.27;5.47;;;;;;;-145.18;100.00;46660.41;5032496;28;20052;-60
2023/10/06 00:20:55;;;;;;;9.60;4.67;;;;;;;-145.18;100.00;46660.41;5031023;28;20112;-61
2023/10/06 00:23:21;;;;;;;15.70;4.57;;;;;;;-145.18;100.00;46636.94;5031529;28;20155;-60
2023/10/06 00:25:51;;;;;;;15.13;5.23;;;;;;;-145.18;100.00;46636.94;5030135;28;20465;-60
2023/10/06 00:28:21;;;;;;;11.20;4.80;;;;;;;-145.18;100.00;46633.06;5027773;28;20030;-60
2023/10/06 00:30:55;;;;;;;11.40;4.30;;;;;;;-145.18;100.00;46636.94;5027303;28;20083;-60
2023/10/06 00:33:21;;;;;;;16.10;4.87;;;;;;;-145.18;100.00;46660.41;5031086;28;20071;-60
2023/10/06 00:35:48;;;;;;;14.17;6.13;;;;;;;-145.18;100.00;46635.00;5028302;28;20033;-60
2023/10/06 00:38:16;;;;;;;13.37;5.20;;;;;;;-145.18;100.00;46636.94;5032452;28;20040;-60
2023/10/06 00:40:50;;;;;;;12.50;5.00;;;;;;;-145.18;100.00;46660.41;5030237;28;20632;-60
2023/10/06 00:43:27;;;;;;;12.07;5.37;;;;;;;-145.18;100.00;46660.41;5028670;28;20025;-60
2023/10/06 00:45:53;;;;;;;11.87;5.27;;;;;;;-145.18;100.00;46635.00;5028679;28;20533;-60
2023/10/06 00:48:19;;;;;;;13.47;5.10;;;;;;;-145.18;100.00;46660.41;5029310;28;20030;-60
2023/10/06 00:50:45;;;;;;;14.87;5.27;;;;;;;-145.18;100.00;46660.41;5031751;28;20041;-60
2023/10/06 00:53:13;;;;;;;14.67;4.57;;;;;;;-145.18;100.00;46660.41;5031743;28;20474;-60
2023/10/06 00:55:40;;;;;;;12.03;4.97;;;;;;;-145.18;100.00;46660.41;5031768;28;20041;-60
2023/10/06 00:58:10;;;;;;;10.77;5.03;;;;;;;-145.18;100.00;46660.41;5030569;28;20033;-60
2023/10/06 01:00:37;;;;;;;11.93;5.40;;;;;;;-145.18;100.00;46633.06;5029904;28;20079;-60
2023/10/06 01:03:10;;;;;;;19.87;5.90;;;;;;;-145.18;100.00;46660.41;5028469;28;20025;-61
2023/10/06 01:05:36;;;;;;;17.20;5.70;;;;;;;-145.18;100.00;46633.06;5029910;28;20112;-60
2023/10/06 01:08:05;;;;;;;11.90;5.70;;;;;;;-145.18;100.00;46635.00;5028671;28;20057;-60
2023/10/06 01:10:34;;;;;;;12.33;5.20;;;;;;;-145.18;100.00;46660.41;5031483;28;20034;-65
2023/10/06 01:13:11;;;;;;;12.67;5.93;;;;;;;-145.18;100.00;46633.06;5030113;28;20535;-65
2023/10/06 01:15:44;;;;;;;10.83;5.37;;;;;;;-145.18;100.00;46660.41;5029266;28;20033;-66
2023/10/06 01:18:19;;;;;;;14.23;6.17;;;;;;;-145.18;100.00;46660.41;5026157;28;20029;-65
2023/10/06 01:20:44;;;;;;;9.53;5.70;;;;;;;-145.18;100.00;46660.41;5028318;28;20644;-65
2023/10/06 01:23:21;;;;;;;12.70;5.73;;;;;;;-145.18;100.00;46660.41;5030106;28;20120;-65
2023/10/06 01:25:53;;;;;;;15.33;6.70;;;;;;;-145.18;100.00;46660.41;5028420;28;20402;-65
2023/10/06 01:28:23;;;;;;;13.87;6.43;;;;;;;-145.18;100.00;46660.41;5029618;28;20030;-65
2023/10/06 01:30:52;;;;;;;21.20;6.63;;;;;;;-145.18;100.00;46633.06;5029566;28;20029;-65
2023/10/06 01:33:18;;;;;;;12.77;6.17;;;;;;;-145.18;100.00;46660.41;5028314;28;20029;-65
2023/10/06 01:35:45;;;;;;;12.83;6.63;;;;;;;-145.18;100.00;46660.41;5027386;28;20026;-65
2023/10/06 01:38:22;;;;;;;14.50;6.27;;;;;;;-145.18;100.00;46660.41;5031528;28;20385;-65
2023/10/06 01:40:50;;;;;;;14.73;6.13;;;;;;;-145.18;100.00;46660.41;5028114;28;20064;-65
2023/10/06 01:43:22;;;;;;;16.10;6.20;;;;;;;-145.18;100.00;46660.41;5028597;28;20087;-66
2023/10/06 01:45:48;;;;;;;18.70;6.93;;;;;;;-145.18;100.00;46660.41;5028343;28;20033;-65
2023/10/06 01:50:41;;;;;;;16.13;6.30;;;;;;;-145.18;100.00;46660.41;5028875;28;20049;-65
2023/10/06 01:53:16;;;;;;;15.70;6.17;;;;;;;-145.18;100.00;46660.41;5030655;28;20025;-66
2023/10/06 01:55:41;;;;;;;15.70;6.75;;;;;;;-145.18;100.00;46660.41;5029501;28;20382;-65
2023/10/06 01:58:11;;;;;;;12.97;6.37;;;;;;;-145.18;100.00;46660.41;5030729;28;20048;-66
2023/10/06 02:00:37;;;;;;;17.13;6.47;;;;;;;-145.18;100.00;46660.41;5029592;28;20040;-66
2023/10/06 02:03:04;;;;;;;17.80;7.20;;;;;;;-145.18;100.00;46660.41;5029877;28;20017;-65
2023/10/06 02:05:30;;;;;;;11.23;6.03;;;;;;;-145.18;100.00;46660.41;5027442;28;20037;-66
2023/10/06 02:08:00;;;;;;;19.37;7.27;;;;;;;-145.18;100.00;46660.41;5028579;28;20021;-66
2023/10/06 02:10:26;;;;;;;16.33;6.83;;;;;;;-145.18;100.00;46660.41;5029555;28;20037;-65
2023/10/06 02:12:52;;;;;;;14.50;6.80;;;;;;;-145.18;100.00;46660.41;5029834;28;20083;-64
2023/10/06 02:15:18;;;;;;;14.97;6.47;;;;;;;-145.18;100.00;46660.41;5028309;28;20389;-65
2023/10/06 02:17:44;;;;;;;8.60;5.67;;;;;;;-145.18;100.00;46660.41;5030140;28;20104;-65
2023/10/06 02:20:29;;;;;;;15.07;6.23;;;;;;;-145.18;100.00;46660.41;5027887;28;20504;-66
2023/10/06 02:22:59;;;;;;;17.07;6.47;;;;;;;-145.18;100.00;46660.41;5026653;28;20819;-65
2023/10/06 02:25:25;;;;;;;14.37;6.80;;;;;;;-145.18;100.00;46660.41;5028299;28;20040;-66
2023/10/06 02:27:52;;;;;;;16.53;7.70;;;;;;;-145.18;100.00;46660.41;5028825;28;20050;-66
2023/10/06 02:30:19;;;;;;;12.83;6.13;;;;;;;-145.18;100.00;46660.41;5028775;28;20021;-66
2023/10/06 02:32:45;;;;;;;14.50;6.73;;;;;;;-145.18;100.00;46660.41;5027936;28;20113;-66
2023/10/06 02:35:17;;;;;;;9.20;6.20;;;;;;;-145.18;100.00;46660.41;5029873;28;20036;-65
2023/10/06 02:37:49;;;;;;;16.63;7.37;;;;;;;-145.18;100.00;46660.41;5029697;28;20069;-65
2023/10/06 02:40:16;;;;;;;16.97;6.70;;;;;;;-145.18;100.00;46660.41;5032594;28;20033;-65
2023/10/06 02:42:45;;;;;;;12.00;6.50;;;;;;;-145.18;100.00;46660.41;5033803;28;20117;-65
2023/10/06 02:45:20;;;;;;;19.17;6.30;;;;;;;-145.18;100.00;46660.41;5033369;28;20074;-66
2023/10/06 02:47:46;;;;;;;14.38;6.63;;;;;;;-145.18;100.00;46660.41;5032283;28;20121;-66
2023/10/06 02:50:19;;;;;;;23.53;6.70;;;;;;;-145.18;100.00;46660.41;5033489;28;20496;-66
2023/10/06 02:52:46;;;;;;;15.73;6.50;;;;;;;-145.18;100.00;46660.41;5032653;28;20482;-65
2023/10/06 02:55:31;;;;;;;16.97;5.80;;;;;;;-145.18;100.00;46660.41;5031801;28;20033;-66
2023/10/06 02:57:58;;;;;;;13.52;5.93;;;;;;;-145.18;100.00;46660.41;5030157;28;20029;-66
2023/10/06 03:02:57;;;;;;;14.60;6.23;;;;;;;-145.18;100.00;46660.41;5032004;28;20542;-66
2023/10/06 03:05:32;;;;;;;17.87;6.40;;;;;;;-145.18;100.00;46660.41;5028920;28;20116;-66
2023/10/06 03:08:01;;;;;;;;;;;;;;;-145.18;100.00;46660.41;5033147;28;20029;-65
2023/10/06 03:10:30;;;;;;;17.97;5.87;;;;;;;-145.18;100.00;46660.41;5028792;28;19962;-65
2023/10/06 03:12:57;;;;;;;14.00;5.17;;;;;;;-145.18;100.00;46660.41;5028942;28;20017;-66
2023/10/06 03:15:57;;;;;;;15.80;6.23;;;;;;;-145.18;100.00;46660.41;5025993;28;20108;-65
2023/10/06 03:18:16;;;;;;;15.40;6.17;;;;;;;-145.18;100.00;46660.41;5027175;28;20536;-66
2023/10/06 03:20:49;;;;;;;18.67;6.67;;;;;;;-145.18;100.00;46660.41;5031664;28;20024;-66
2023/10/06 03:23:26;;;;;;;12.00;5.67;;;;;;;-145.18;100.00;46660.41;5031047;28;20026;-66
2023/10/06 03:25:56;;;;;;;16.93;6.93;;;;;;;-145.18;100.00;46660.41;5013485;28;20037;-66
2023/10/06 03:28:43;;;;;;;11.90;5.97;;;;;;;-145.18;100.00;46660.41;5031833;28;20049;-66
2023/10/06 03:33:44;;;;;;;12.27;5.20;;;;;;;-145.18;100.00;46660.41;5025625;28;20044;-61
2023/10/06 03:36:09;;;;;;;12.90;6.00;;;;;;;-145.18;100.00;46660.41;5032062;28;20090;-61
2023/10/06 03:38:42;;;;;;;17.17;5.67;;;;;;;-145.18;100.00;46660.41;5031404;28;20112;-60
2023/10/06 03:41:18;;;;;;;17.50;5.87;;;;;;;-145.18;100.00;46660.41;5030198;28;20040;-60
2023/10/06 03:43:55;;;;;;;16.77;6.33;;;;;;;-145.18;100.00;46660.41;5030614;28;20540;-61
2023/10/06 03:46:24;;;;;;;12.90;5.90;;;;;;;-145.18;100.00;46660.41;5029766;28;20033;-60
2023/10/06 03:48:51;;;;;;;14.23;6.13;;;;;;;-145.18;100.00;46660.41;5032067;28;20029;-61
2023/10/06 03:51:20;;;;;;;12.33;5.90;;;;;;;-145.18;100.00;46660.41;5029058;28;20036;-60
2023/10/06 03:53:48;;;;;;;22.03;6.23;;;;;;;-145.18;100.00;46660.41;5030380;28;20481;-60
2023/10/06 03:56:17;;;;;;;14.63;5.50;;;;;;;-145.18;100.00;46660.41;5031413;28;20029;-60
2023/10/06 03:58:46;;;;;;;17.17;6.13;;;;;;;-145.18;100.00;46660.41;5031353;28;20034;-60
2023/10/06 04:01:26;;;;;;;16.33;6.27;;;;;;;-145.18;100.00;46660.41;5026050;28;20053;-60
2023/10/06 04:03:51;;;;;;;17.83;6.23;;;;;;;-145.18;100.00;46660.41;5031195;28;20042;-60
2023/10/06 04:06:17;;;;;;;14.50;6.67;;;;;;;-145.18;100.00;46660.41;5031267;28;20491;-60
2023/10/06 04:08:46;;;;;;;12.20;6.47;;;;;;;-145.18;100.00;46660.41;5030004;28;20109;-60
2023/10/06 04:11:15;;;;;;;14.73;6.57;;;;;;;-145.18;100.00;46660.41;5013844;28;20044;-61
2023/10/06 04:13:41;;;;;;;17.30;7.47;;;;;;;-145.18;100.00;46660.41;5031335;28;20121;-60
2023/10/06 04:16:07;;;;;;;12.37;6.20;;;;;;;-145.18;100.00;46660.41;5028448;28;20116;-60
2023/10/06 04:18:33;;;;;;;14.40;6.40;;;;;;;-145.18;100.00;46660.41;5031096;28;20497;-60
2023/10/06 04:20:59;;;;;;;15.07;6.27;;;;;;;-145.18;100.00;46660.41;5031885;28;20056;-61
2023/10/06 04:23:24;;;;;;;11.90;6.23;;;;;;;-145.18;100.00;46660.41;5030186;28;20060;-61
2023/10/06 04:25:54;;;;;;;16.07;6.87;;;;;;;-145.18;100.00;46660.41;5028422;28;20039;-60
2023/10/06 04:28:25;;;;;;;16.37;6.67;;;;;;;-145.18;100.00;46660.41;5026600;28;20107;-61
2023/10/06 04:30:50;;;;;;;17.70;7.17;;;;;;;-145.18;100.00;46660.41;5028888;28;20618;-60
2023/10/06 04:33:18;;;;;;;17.60;7.37;;;;;;;-145.18;100.00;46660.41;5030014;28;20025;-61
2023/10/06 04:38:29;;;;;;;21.80;6.40;;;;;;;-145.18;100.00;46660.41;5027099;28;20110;-61
2023/10/06 04:40:56;;;;;;;13.37;7.53;;;;;;;-145.18;100.00;46660.41;5031368;28;20478;-66
2023/10/06 04:43:23;;;;;;;15.97;6.67;;;;;;;-145.18;100.00;46660.41;5028111;28;20030;-66
2023/10/06 04:45:50;;;;;;;18.77;8.03;;;;;;;-145.18;100.00;46660.41;5029726;28;20110;-66
2023/10/06 04:48:18;;;;;;;13.10;7.33;;;;;;;-145.18;100.00;46660.41;5029449;28;20021;-66
2023/10/06 04:50:45;;;;;;;15.03;7.23;;;;;;;-145.18;100.00;46660.41;5031113;28;20036;-66
2023/10/06 04:53:11;;;;;;;15.67;7.30;;;;;;;-145.18;100.00;46660.41;5028242;28;20049;-66
2023/10/06 04:55:38;;;;;;;12.57;7.67;;;;;;;-145.18;100.00;46660.41;5031282;28;20033;-66
2023/10/06 04:58:13;;;;;;;16.77;7.27;;;;;;;-145.18;100.00;46660.41;5029885;28;20523;-66
2023/10/06 05:00:39;;;;;;;21.95;7.45;;;;;;;-145.18;100.00;46660.41;5028941;28;20052;-66
2023/10/06 05:03:06;;;;;;;18.73;7.73;;;;;;;-145.18;100.00;46660.41;5027503;28;20033;-66
2023/10/06 05:05:37;;;;;;;15.23;7.33;;;;;;;-145.18;100.00;46660.41;5033847;28;20033;-66
2023/10/06 05:08:04;;;;;;;16.07;7.07;;;;;;;-145.18;100.00;46660.41;5027544;28;20144;-66
2023/10/06 05:10:31;;;;;;;16.40;7.27;;;;;;;-145.18;100.00;46660.41;5028064;28;20026;-66
2023/10/06 05:12:57;;;;;;;15.60;7.13;;;;;;;-145.18;100.00;46660.41;5030529;28;20029;-66
2023/10/06 05:15:30;;;;;;;19.30;6.90;;;;;;;-145.18;100.00;46660.41;5025354;28;20519;-67
2023/10/06 05:18:00;;;;;;;19.23;7.07;;;;;;;-145.18;100.00;46633.06;5028245;28;20036;-65
2023/10/06 05:20:32;;;;;;;13.63;7.60;;;;;;;-145.18;100.00;46660.41;5029066;28;20025;-66
2023/10/06 05:23:05;;;;;;;24.40;7.70;;;;;;;-145.18;100.00;46635.00;5023481;28;20465;-65
2023/10/06 05:25:30;;;;;;;19.10;6.70;;;;;;;-145.18;100.00;46660.41;5028968;28;20045;-66
2023/10/06 05:27:59;;;;;;;17.57;8.43;;;;;;;-145.18;100.00;46660.41;5029991;28;20034;-65
2023/10/06 05:30:29;;;;;;;16.50;7.00;;;;;;;-145.18;100.00;46660.41;5025799;28;20033;-66
2023/10/06 05:32:59;;;;;;;17.43;8.10;;;;;;;-145.18;100.00;46660.41;5030172;28;20025;-65
2023/10/06 05:35:36;;;;;;;19.57;7.37;;;;;;;-145.18;100.00;46636.94;5026496;28;20033;-65
2023/10/06 05:38:03;;;;;;;25.07;7.37;;;;;;;-145.18;100.00;46660.41;5029599;28;20420;-66
2023/10/06 05:40:29;;;;;;;10.37;6.60;;;;;;;-145.18;100.00;46635.00;5028544;28;20048;-66
2023/10/06 05:42:55;;;;;;;17.33;8.10;;;;;;;-145.18;100.00;46635.00;5029416;28;20087;-66
2023/10/06 05:45:20;;;;;;;18.80;6.83;;;;;;;-145.18;100.00;46638.91;5025645;28;20485;-65
2023/10/06 05:47:54;;;;;;;16.90;6.90;;;;;;;-145.18;100.00;46642.81;5030017;28;20029;-66
2023/10/06 05:50:29;;;;;;;14.90;6.03;;;;;;;-145.18;100.00;46642.81;5026628;28;20041;-61
2023/10/06 05:52:58;;;;;;;15.45;6.75;;;;;;;-145.18;100.00;46638.91;5024480;28;20017;-60
2023/10/06 05:55:29;;;;;;;16.33;6.80;;;;;;;-145.18;100.00;46638.91;5023586;28;20077;-60
2023/10/06 05:57:55;;;;;;;16.10;6.43;;;;;;;-145.18;100.00;46638.91;5027773;28;20073;-60
2023/10/06 06:00:25;;;;;;;13.13;5.90;;;;;;;-145.18;100.00;46638.91;5027850;28;20511;-60
2023/10/06 06:02:52;;;;;;;14.20;6.90;;;;;;;-145.18;100.00;46642.81;5025636;28;20040;-61
2023/10/06 06:05:17;;;;;;;13.77;7.07;;;;;;;-145.18;100.00;46642.81;5029792;28;20029;-60
2023/10/06 06:07:43;;;;;;;13.93;6.60;;;;;;;-145.18;100.00;46640.88;5029612;28;20397;-60
2023/10/06 06:10:18;;;;;;;12.00;5.90;;;;;;;-145.18;100.00;46638.91;5030243;28;20033;-60
2023/10/06 06:12:44;;;;;;;16.60;5.73;;;;;;;-145.18;100.00;46640.88;5028765;28;20030;-60
2023/10/06 06:15:11;;;;;;;14.67;5.47;;;;;;;-145.18;100.00;46638.91;5029169;28;20277;-60
2023/10/06 06:17:40;;;;;;;11.87;5.80;;;;;;;-145.18;100.00;46636.94;5025388;28;20690;-60
2023/10/06 06:20:14;;;;;;;14.33;5.77;;;;;;;-145.18;100.00;46640.88;5030175;28;20431;-61
2023/10/06 06:22:42;;;;;;;19.47;6.03;;;;;;;-145.18;100.00;46640.88;5029308;28;20497;-60
2023/10/06 06:25:09;;;;;;;11.40;5.50;;;;;;;-145.18;100.00;46640.88;5027266;28;20099;-60
2023/10/06 06:27:35;;;;;;;15.87;4.87;;;;;;;-145.18;100.00;46638.91;5029091;28;20043;-60
2023/10/06 06:30:00;;;;;;;13.13;5.50;;;;;;;-145.18;100.00;46642.81;5028209;28;20037;-60
2023/10/06 06:32:25;;;;;;;9.37;5.57;;;;;;;-145.18;100.00;46640.88;5054107;28;20030;-61
2023/10/06 06:34:53;;;;;;;13.67;4.83;;;;;;;-145.18;100.00;46640.88;5028297;28;20037;-60
2023/10/06 06:37:20;;;;;;;14.83;6.30;;;;;;;-145.18;100.00;46642.81;5023088;28;20124;-60
2023/10/06 06:39:45;;;;;;;14.43;5.73;;;;;;;-145.18;100.00;46644.78;5026964;28;20034;-60
2023/10/06 06:42:12;;;;;;;16.10;5.70;;;;;;;-145.18;100.00;46642.81;5029018;28;20387;-60
2023/10/06 06:44:37;;;;;;;14.63;5.50;;;;;;;-145.18;100.00;46642.81;5024047;28;20033;-60
2023/10/06 06:47:03;;;;;;;15.17;6.13;;;;;;;-145.18;100.00;46642.81;5027519;28;20095;-60
2023/10/06 06:49:28;;;;;;;12.20;5.37;;;;;;;-145.18;100.00;46642.81;5028958;28;20043;-61
2023/10/06 06:51:54;;;;;;;14.43;5.60;;;;;;;-145.18;100.00;46644.78;5025888;28;20036;-61
2023/10/06 06:54:19;;;;;;;15.07;5.13;;;;;;;-145.18;100.00;46648.69;5024023;28;20413;-61
2023/10/06 06:56:47;;;;;;;13.97;5.40;;;;;;;-145.18;100.00;46650.63;5027796;28;20044;-61
2023/10/06 06:59:13;;;;;;;12.20;4.73;;;;;;;-145.18;100.00;46644.78;5028082;28;20061;-60
2023/10/06 07:01:38;;;;;;;14.00;5.30;;;;;;;-145.18;100.00;46646.72;5027957;28;20041;-60
2023/10/06 07:04:05;;;;;;;13.20;5.83;;;;;;;-145.18;100.00;46646.72;5027519;28;20033;-60
2023/10/06 07:06:31;;;;;;;13.77;5.07;;;;;;;-145.18;100.00;46650.63;5026909;28;20120;-60
2023/10/06 07:08:57;;;;;;;11.53;5.73;;;;;;;-145.18;100.00;46644.78;5029509;28;20068;-61
2023/10/06 07:11:23;;;;;;;10.40;5.37;;;;;;;-145.18;100.00;46644.78;5027601;28;20064;-60
2023/10/06 07:13:48;;;;;;;10.70;5.37;;;;;;;-145.18;100.00;46650.63;5028933;28;20040;-60
2023/10/06 07:16:14;;;;;;;10.97;5.43;;;;;;;-145.18;100.00;46650.63;5028288;28;20545;-60
2023/10/06 07:18:40;;;;;;;18.40;5.03;;;;;;;-145.18;100.00;46644.78;5028871;28;20038;-61
2023/10/06 07:21:10;;;;;;;9.73;5.20;;;;;;;-145.18;100.00;46652.59;5027257;28;20049;-60
2023/10/06 07:23:37;;;;;;;11.30;4.97;;;;;;;-145.18;100.00;46648.69;5026272;28;20448;-61
2023/10/06 07:26:13;;;;;;;13.10;5.17;;;;;;;-145.18;100.00;46648.69;5031410;28;20128;-60
2023/10/06 07:28:39;;;;;;;18.95;6.22;;;;;;;-145.18;100.00;46650.63;5031285;28;20082;-60
2023/10/06 07:31:12;;;;;;;10.87;4.60;;;;;;;-145.18;100.00;46646.72;5032891;28;20620;-60
2023/10/06 07:33:38;;;;;;;11.80;5.20;;;;;;;-145.18;100.00;46644.78;5029987;28;20544;-60
2023/10/06 07:36:14;;;;;;;15.07;4.90;;;;;;;-145.18;100.00;46640.88;5031068;28;20629;-60
2023/10/06 07:38:41;;;;;;;14.45;4.97;;;;;;;-145.18;100.00;46652.59;5032688;28;20032;-60
2023/10/06 07:41:07;;;;;;;10.17;5.27;;;;;;;-145.18;100.00;46656.50;5029842;28;20033;-61
2023/10/06 07:43:33;;;;;;;13.50;5.03;;;;;;;-145.18;100.00;46650.63;5031662;28;20401;-61
2023/10/06 07:46:07;;;;;;;13.77;5.37;;;;;;;-145.18;100.00;46652.59;5032586;28;20030;-60
2023/10/06 07:48:34;;;;;;;8.27;3.57;;;;;;;-145.18;100.00;46656.50;5032216;28;20124;-60
2023/10/06 07:51:08;;;;;;;8.67;4.87;;;;;;;-145.18;100.00;46660.41;5030181;28;20040;-60
2023/10/06 07:53:38;;;;;;;9.38;4.20;;;;;;;-145.18;100.00;46656.50;5033876;28;20053;-60
2023/10/06 07:56:08;;;;;;;14.93;4.40;;;;;;;-145.18;100.00;46664.31;5029808;28;20156;-60
2023/10/06 07:58:38;;;;;;;10.67;4.73;;;;;;;-145.18;100.00;46662.34;5030344;28;20065;-60
2023/10/06 08:01:12;;;;;;;8.10;4.20;;;;;;;-145.18;100.00;46662.34;5034224;28;20041;-60
2023/10/06 08:03:39;;;;;;;11.70;4.67;;;;;;;-145.18;100.00;46662.34;5029993;28;20045;-60
2023/10/06 08:06:08;;;;;;;10.57;4.70;;;;;;;-145.18;100.00;46668.22;5031154;28;20029;-61
2023/10/06 08:08:35;;;;;;;11.07;4.03;;;;;;;-145.18;100.00;46666.25;5030073;28;20029;-60
2023/10/06 08:11:05;;;;;;;13.57;5.13;;;;;;;-145.18;100.00;46670.16;5032492;28;20029;-60
2023/10/06 08:13:33;;;;;;;12.37;4.87;;;;;;;-145.18;100.00;46666.25;5031218;28;20124;-61
2023/10/06 08:16:03;;;;;;;10.10;4.50;;;;;;;-145.18;100.00;46668.22;5030336;28;20501;-60
2023/10/06 08:18:30;;;;;;;18.57;5.17;;;;;;;-145.18;100.00;46664.31;5031648;28;20064;-60
2023/10/06 08:20:56;;;;;;;13.03;4.87;;;;;;;-145.18;100.00;46668.22;5032148;28;20038;-61
2023/10/06 08:23:21;;;;;;;13.63;4.83;;;;;;;-145.18;100.00;46668.22;5032198;28;20117;-60
2023/10/06 08:25:46;;;;;;;14.13;4.83;;;;;;;-145.18;100.00;46668.22;5030911;28;20049;-60
2023/10/06 08:28:12;;;;;;;15.70;5.47;;;;;;;-145.18;100.00;46668.22;5030328;28;20080;-60
2023/10/06 08:30:38;;;;;;;12.03;4.60;;;;;;;-145.18;100.00;46670.16;5031100;28;20079;-61
2023/10/06 08:33:08;;;;;;;13.37;4.93;;;;;;;-145.18;100.00;46668.22;5029626;28;20041;-61
2023/10/06 08:35:34;;;;;;;10.20;4.37;;;;;;;-145.18;100.00;46668.22;5032718;28;20033;-61
2023/10/06 08:38:00;;;;;;;12.27;4.73;;;;;;;-145.18;100.00;46668.22;5032220;28;20366;-60
2023/10/06 08:40:26;;;;;;;10.00;4.97;;;;;;;-145.18;100.00;46666.25;5032030;28;20481;-60
2023/10/06 08:42:53;;;;;;;11.50;4.90;;;;;;;-145.18;100.00;46666.25;5031298;28;20108;-60
2023/10/06 08:45:23;;;;;;;10.53;4.40;;;;;;;-145.18;100.00;46666.25;5031166;28;20033;-60
2023/10/06 08:47:59;;;;;;;12.47;5.13;;;;;;;-145.18;100.00;46664.31;5030729;28;20037;-61
2023/10/06 08:50:29;;;;;;;13.30;5.27;;;;;;;-145.18;100.00;46666.25;5027108;28;20091;-61
2023/10/06 08:53:00;;;;;;;12.30;4.93;;;;;;;-145.18;100.00;46672.13;5031593;28;20026;-61
2023/10/06 08:55:30;;;;;;;10.80;4.83;;;;;;;-145.18;100.00;46670.16;5030506;28;20033;-60
2023/10/06 08:57:58;;;;;;;13.23;5.00;;;;;;;-145.18;100.00;46668.22;5030750;28;20040;-61
2023/10/06 09:00:24;;;;;;;11.63;4.73;;;;;;;-145.18;100.00;46672.13;5029977;28;20470;-61
2023/10/06 09:02:53;;;;;;;13.77;4.67;;;;;;;-145.18;100.00;46672.13;5030729;28;20091;-61
2023/10/06 09:05:19;;;;;;;11.90;5.00;;;;;;;-145.18;100.00;46672.13;5032029;28;20115;-60
2023/10/06 09:07:58;;;;;;;13.53;4.43;;;;;;;-145.18;100.00;46676.03;5029190;28;20849;-61
2023/10/06 09:10:24;;;;;;;18.27;5.20;;;;;;;-145.18;100.00;46676.03;5031653;28;20033;-60
2023/10/06 09:13:07;;;;;;;13.30;5.13;;;;;;;-145.18;100.00;46674.06;5028925;28;20025;-61
2023/10/06 09:15:35;;;;;;;14.40;5.70;;;;;;;-145.18;100.00;46677.97;5028366;28;20022;-61
2023/10/06 09:18:27;;;;;;;10.07;4.57;;;;;;;-145.18;100.00;46674.06;5029799;28;20040;-61
2023/10/06 09:20:54;;;;;;;11.47;4.50;;;;;;;-145.18;100.00;46676.03;5028820;28;20087;-61
2023/10/06 09:23:40;;;;;;;13.03;4.93;;;;;;;-145.18;100.00;46676.03;5030617;28;20078;-61
2023/10/06 09:26:07;;;;;;;11.63;4.95;;;;;;;-145.18;100.00;46681.88;5030057;28;20478;-61
2023/10/06 09:28:33;;;;;;;14.10;4.97;;;;;;;-145.18;100.00;46679.94;5027214;28;20068;-61
2023/10/06 09:31:01;;;;;;;16.00;5.70;;;;;;;-145.18;100.00;46677.97;5028134;28;20087;-61
2023/10/06 09:33:27;;;;;;;15.57;4.80;;;;;;;-145.18;100.00;46679.94;5029293;28;20044;-61
2023/10/06 09:36:16;;;;;;;10.17;4.80;;;;;;;-145.18;100.00;46679.94;5029588;28;20029;-62
2023/10/06 09:38:47;;;;;;;13.60;4.70;;;;;;;-145.18;100.00;46679.94;5029896;28;20538;-61
2023/10/06 09:41:13;;;;;;;12.67;4.40;;;;;;;-145.18;100.00;46674.06;5029268;28;20504;-61
2023/10/06 09:43:40;;;;;;;13.07;4.63;;;;;;;-145.18;100.00;46679.94;5030423;28;20049;-61
2023/10/06 09:46:16;;;;;;;13.93;4.60;;;;;;;-145.18;100.00;46676.03;5027505;28;20033;-60
2023/10/06 09:48:45;;;;;;;10.83;4.17;;;;;;;-145.18;100.00;46679.94;5029349;28;20040;-61
2023/10/06 09:51:12;;;;;;;22.53;4.50;;;;;;;-145.18;100.00;46681.88;5027930;28;20033;-61
2023/10/06 09:53:39;;;;;;;16.63;4.27;;;;;;;-145.18;100.00;46677.97;5028517;28;20052;-61
2023/10/06 09:56:12;;;;;;;13.10;4.10;;;;;;;-145.18;100.00;46685.78;5031007;28;20362;-61
2023/10/06 09:58:54;;;;;;;12.03;4.27;;;;;;;-145.18;100.00;46679.94;5028033;28;20413;-61
2023/10/06 10:01:24;;;;;;;9.03;3.53;;;;;;;-145.18;100.00;46685.78;5027335;28;20017;-61
2023/10/06 10:03:52;;;;;;;9.73;4.00;;;;;;;-145.18;100.00;46681.88;5028295;28;20490;-61
2023/10/06 10:06:21;;;;;;;11.67;3.67;;;;;;;-145.18;100.00;46677.97;5030341;28;20026;-61
2023/10/06 10:08:47;;;;;;;11.50;4.10;;;;;;;-145.18;100.00;46683.84;5031023;28;20493;-61
2023/10/06 10:11:28;;;;;;;10.60;4.00;;;;;;;-145.18;100.00;46683.84;5027470;28;20037;-61
2023/10/06 10:14:03;;;;;;;10.03;3.90;;;;;;;-145.18;100.00;46679.94;5030518;28;20469;-61
2023/10/06 10:16:58;;;;;;;9.10;3.78;;;;;;;-145.18;100.00;46676.03;5027743;28;20552;-61
2023/10/06 10:19:26;;;;;;;10.23;3.70;;;;;;;-145.18;100.00;46679.94;5029389;28;20099;-61
2023/10/06 10:21:54;;;;;;;11.67;4.23;;;;;;;-145.18;100.00;46660.41;5030513;28;20057;-61
2023/10/06 10:24:20;;;;;;;11.17;4.13;;;;;;;-145.18;100.00;46656.50;5025888;28;20363;-61
2023/10/06 10:26:47;;;;;;;15.40;4.97;;;;;;;-145.18;100.00;46654.53;5027633;28;20029;-61
2023/10/06 10:29:13;;;;;;;12.90;4.53;;;;;;;-145.18;100.00;46648.69;5026600;28;20043;-61
2023/10/06 10:31:42;;;;;;;11.37;3.87;;;;;;;-145.18;100.00;46660.41;5023509;28;20030;-61
2023/10/06 10:34:15;;;;;;;14.57;4.23;;;;;;;-145.18;100.00;46654.53;5029659;28;20025;-61
2023/10/06 10:36:41;;;;;;;11.77;4.23;;;;;;;-145.18;100.00;46656.50;5030979;28;20053;-61
2023/10/06 10:39:17;;;;;;;13.97;4.23;;;;;;;-145.18;100.00;46646.72;5025467;28;20037;-61
2023/10/06 10:41:45;;;;;;;10.03;4.37;;;;;;;-145.18;100.00;46638.91;5027949;28;20427;-61
2023/10/06 10:44:12;;;;;;;16.30;4.40;;;;;;;-145.18;100.00;46601.78;5029501;28;20160;-61
2023/10/06 10:46:48;;;;;;;11.10;4.10;;;;;;;-145.18;100.00;46638.91;5028883;28;20030;-61
2023/10/06 10:49:18;;;;;;;14.87;4.50;;;;;;;-145.18;100.00;46664.31;5025361;28;20124;-60
2023/10/06 10:52:00;;;;;;;12.53;5.13;;;;;;;-145.18;100.00;46676.03;5027350;28;20064;-61
2023/10/06 10:54:32;;;;;;;8.53;4.03;;;;;;;-145.18;100.00;46685.78;5027793;28;20041;-61
2023/10/06 10:57:05;;;;;;;11.17;4.30;;;;;;;-145.18;100.00;46679.94;5023016;28;20128;-61
2023/10/06 11:02:48;;;;;;;13.70;5.10;;;;;;;-145.18;100.00;46681.88;5030730;28;20037;-61
2023/10/06 11:05:18;;;;;;;9.93;4.30;;;;;;;-145.18;100.00;46683.84;5031517;28;20036;-61
2023/10/06 11:08:00;;;;;;;17.83;5.30;;;;;;;-145.18;100.00;46681.88;5034025;28;20043;-61
2023/10/06 11:10:27;;;;;;;11.87;5.30;;;;;;;-145.18;100.00;46683.84;5032518;28;20513;-61
2023/10/06 11:13:19;;;;;;;11.00;4.47;;;;;;;-145.18;100.00;46683.84;5032780;28;20045;-61
2023/10/06 11:15:46;;;;;;;12.80;5.17;;;;;;;-145.18;100.00;46679.94;5029127;28;20071;-61
2023/10/06 11:18:13;;;;;;;13.30;4.77;;;;;;;-145.18;100.00;46683.84;5032496;28;20035;-61
2023/10/06 11:20:41;;;;;;;8.77;4.20;;;;;;;-145.18;100.00;46681.88;5032759;28;20056;-61
2023/10/06 11:23:06;;;;;;;20.77;5.67;;;;;;;-145.18;100.00;46683.84;5031986;28;20052;-60
2023/10/06 11:25:36;;;;;;;17.00;6.27;;;;;;;-145.18;100.00;46683.84;5032195;28;20038;-60